createdAt,value
2017-10-09T00:00:07.083Z,0.00
2017-10-09T00:01:07.123Z,0.00
2017-10-09T00:02:07.439Z,0.00
2017-10-09T00:03:07.167Z,0.00
2017-10-09T00:04:07.198Z,0.00
2017-10-09T00:05:07.234Z,0.00
2017-10-09T00:06:07.266Z,0.00
2017-10-09T00:07:07.520Z,0.00
2017-10-09T00:08:07.635Z,0.00
2017-10-09T00:09:07.361Z,0.00
2017-10-09T00:10:07.392Z,0.00
2017-10-09T00:11:07.422Z,0.00
2017-10-09T00:12:07.454Z,0.00
2017-10-09T00:13:07.488Z,0.00
2017-10-09T00:14:07.820Z,0.00
2017-10-09T00:15:07.558Z,0.00
2017-10-09T00:16:07.584Z,0.00
2017-10-09T00:17:07.619Z,0.00
2017-10-09T00:18:07.647Z,0.00
2017-10-09T00:19:07.679Z,0.00
2017-10-09T00:20:08.009Z,0.00
2017-10-09T00:21:07.742Z,0.00
2017-10-09T00:22:07.774Z,0.00
2017-10-09T00:23:07.814Z,0.00
2017-10-09T00:24:07.838Z,0.00
2017-10-09T00:25:07.871Z,0.00
2017-10-09T00:26:07.901Z,0.00
2017-10-09T00:27:08.258Z,0.00
2017-10-09T00:28:08.017Z,0.00
2017-10-09T00:29:08.008Z,0.00
2017-10-09T00:30:08.025Z,0.00
2017-10-09T00:31:08.057Z,0.00
2017-10-09T00:32:08.093Z,0.00
2017-10-09T00:33:08.424Z,0.00
2017-10-09T00:34:08.160Z,0.00
2017-10-09T00:35:08.198Z,0.00
2017-10-09T00:36:08.368Z,0.00
2017-10-09T00:37:08.249Z,0.00
2017-10-09T00:38:08.292Z,0.00
2017-10-09T00:39:08.613Z,0.00
2017-10-09T00:40:08.346Z,0.00
2017-10-09T00:41:08.376Z,0.00
2017-10-09T00:42:08.403Z,0.00
2017-10-09T00:43:08.438Z,0.00
2017-10-09T00:44:08.481Z,0.00
2017-10-09T00:45:08.818Z,0.00
2017-10-09T00:46:08.587Z,0.00
2017-10-09T00:47:08.571Z,0.00
2017-10-09T00:48:08.599Z,0.00
2017-10-09T00:49:08.632Z,0.00
2017-10-09T00:50:08.660Z,0.00
2017-10-09T00:51:08.996Z,0.00
2017-10-09T00:52:08.725Z,0.00
2017-10-09T00:53:08.751Z,0.00
2017-10-09T00:54:08.788Z,0.00
2017-10-09T00:55:08.818Z,0.00
2017-10-09T00:56:08.864Z,0.00
2017-10-09T00:57:09.180Z,0.00
2017-10-09T00:58:08.921Z,0.00
2017-10-09T00:59:08.952Z,0.00
2017-10-09T01:00:08.987Z,0.00
2017-10-09T01:01:09.012Z,0.00
2017-10-09T01:02:09.042Z,0.00
2017-10-09T01:03:09.376Z,0.00
2017-10-09T01:04:09.105Z,0.00
2017-10-09T01:05:09.135Z,0.00
2017-10-09T01:06:09.173Z,0.00
2017-10-09T01:07:09.196Z,0.00
2017-10-09T01:08:09.234Z,0.00
2017-10-09T01:09:09.570Z,0.00
2017-10-09T01:10:09.297Z,0.00
2017-10-09T01:11:09.325Z,0.00
2017-10-09T01:12:09.360Z,0.00
2017-10-09T01:13:09.390Z,0.00
2017-10-09T01:14:09.428Z,0.00
2017-10-09T01:15:09.753Z,0.00
2017-10-09T01:16:09.489Z,0.00
2017-10-09T01:17:09.565Z,0.00
2017-10-09T01:18:09.559Z,0.00
2017-10-09T01:19:09.727Z,0.00
2017-10-09T01:20:09.609Z,0.00
2017-10-09T01:21:09.938Z,0.00
2017-10-09T01:22:09.673Z,0.00
2017-10-09T01:23:09.702Z,0.00
2017-10-09T01:24:09.734Z,0.00
2017-10-09T01:25:09.776Z,0.00
2017-10-09T01:26:09.794Z,0.00
2017-10-09T01:27:10.133Z,0.00
2017-10-09T01:28:09.857Z,0.00
2017-10-09T01:29:09.906Z,0.00
2017-10-09T01:30:09.933Z,0.00
2017-10-09T01:31:09.954Z,0.00
2017-10-09T01:32:09.995Z,0.00
2017-10-09T01:33:10.328Z,0.00
2017-10-09T01:34:10.047Z,0.00
2017-10-09T01:35:10.281Z,0.00
2017-10-09T01:36:10.321Z,0.00
2017-10-09T01:37:10.143Z,0.00
2017-10-09T01:38:10.177Z,0.00
2017-10-09T01:39:10.506Z,0.00
2017-10-09T01:40:10.248Z,0.00
2017-10-09T01:41:10.272Z,0.00
2017-10-09T01:42:10.307Z,0.00
2017-10-09T01:43:10.329Z,0.00
2017-10-09T01:44:10.363Z,0.00
2017-10-09T01:45:10.393Z,0.00
2017-10-09T01:46:10.833Z,0.00
2017-10-09T01:47:10.459Z,0.00
2017-10-09T01:48:10.487Z,0.00
2017-10-09T01:49:10.537Z,0.00
2017-10-09T01:50:10.572Z,0.00
2017-10-09T01:51:10.594Z,0.00
2017-10-09T01:52:10.628Z,0.00
2017-10-09T01:53:10.971Z,0.00
2017-10-09T01:54:10.711Z,0.00
2017-10-09T01:55:10.739Z,0.00
2017-10-09T01:56:10.749Z,0.00
2017-10-09T01:57:10.828Z,0.00
2017-10-09T01:58:10.879Z,0.00
2017-10-09T01:59:10.909Z,0.00
2017-10-09T02:00:11.192Z,0.00
2017-10-09T02:01:10.903Z,0.00
2017-10-09T02:02:10.953Z,0.00
2017-10-09T02:03:11.191Z,0.00
2017-10-09T02:04:11.065Z,0.00
2017-10-09T02:05:11.027Z,0.00
2017-10-09T02:06:11.370Z,0.00
2017-10-09T02:07:11.093Z,0.00
2017-10-09T02:08:11.122Z,0.00
2017-10-09T02:09:11.205Z,0.00
2017-10-09T02:10:11.260Z,0.00
2017-10-09T02:11:11.216Z,0.00
2017-10-09T02:12:11.311Z,0.00
2017-10-09T02:13:11.594Z,0.00
2017-10-09T02:14:11.459Z,0.00
2017-10-09T02:15:11.337Z,0.00
2017-10-09T02:16:11.369Z,0.00
2017-10-09T02:17:11.463Z,0.00
2017-10-09T02:18:11.433Z,0.00
2017-10-09T02:19:11.769Z,0.00
2017-10-09T02:20:11.501Z,0.00
2017-10-09T02:21:11.532Z,0.00
2017-10-09T02:22:11.562Z,0.00
2017-10-09T02:23:11.724Z,0.00
2017-10-09T02:24:11.648Z,0.00
2017-10-09T02:25:11.682Z,0.00
2017-10-09T02:26:12.005Z,0.00
2017-10-09T02:27:11.744Z,0.00
2017-10-09T02:28:11.773Z,0.00
2017-10-09T02:29:11.833Z,0.00
2017-10-09T02:30:11.817Z,0.00
2017-10-09T02:31:11.891Z,0.00
2017-10-09T02:32:11.927Z,0.00
2017-10-09T02:33:12.218Z,0.00
2017-10-09T02:34:11.987Z,0.00
2017-10-09T02:35:12.472Z,0.00
2017-10-09T02:36:11.998Z,0.00
2017-10-09T02:37:12.044Z,0.00
2017-10-09T02:38:12.163Z,0.00
2017-10-09T02:39:12.094Z,0.00
2017-10-09T02:40:12.438Z,0.00
2017-10-09T02:41:12.219Z,0.00
2017-10-09T02:42:12.238Z,0.00
2017-10-09T02:43:12.292Z,0.00
2017-10-09T02:44:12.253Z,0.00
2017-10-09T02:45:12.303Z,0.00
2017-10-09T02:46:12.765Z,0.00
2017-10-09T02:47:12.359Z,0.00
2017-10-09T02:48:12.376Z,0.00
2017-10-09T02:49:12.405Z,0.00
2017-10-09T02:50:12.478Z,0.00
2017-10-09T02:51:12.487Z,0.00
2017-10-09T02:52:12.838Z,0.00
2017-10-09T02:53:12.530Z,0.00
2017-10-09T02:54:12.564Z,0.00
2017-10-09T02:55:12.597Z,0.00
2017-10-09T02:56:12.625Z,0.00
2017-10-09T02:57:12.971Z,0.00
2017-10-09T02:58:13.041Z,0.00
2017-10-09T02:59:12.759Z,0.00
2017-10-09T03:00:12.775Z,0.00
2017-10-09T03:01:12.840Z,0.00
2017-10-09T03:02:12.915Z,0.00
2017-10-09T03:03:12.853Z,0.00
2017-10-09T03:04:13.183Z,0.00
2017-10-09T03:05:12.978Z,0.00
2017-10-09T03:06:12.943Z,0.00
2017-10-09T03:07:12.997Z,0.00
2017-10-09T03:08:13.113Z,0.00
2017-10-09T03:09:13.046Z,0.00
2017-10-09T03:10:13.425Z,0.00
2017-10-09T03:11:13.094Z,0.00
2017-10-09T03:12:13.205Z,0.00
2017-10-09T03:13:13.230Z,0.00
2017-10-09T03:14:13.191Z,0.00
2017-10-09T03:15:13.238Z,0.00
2017-10-09T03:16:13.556Z,0.00
2017-10-09T03:17:13.286Z,0.00
2017-10-09T03:18:13.318Z,0.00
2017-10-09T03:19:13.352Z,0.00
2017-10-09T03:20:13.386Z,0.00
2017-10-09T03:21:13.412Z,0.00
2017-10-09T03:22:13.741Z,0.00
2017-10-09T03:23:13.558Z,0.00
2017-10-09T03:24:13.708Z,0.00
2017-10-09T03:25:13.564Z,0.00
2017-10-09T03:26:13.573Z,0.00
2017-10-09T03:27:13.599Z,0.00
2017-10-09T03:28:13.968Z,0.00
2017-10-09T03:29:13.665Z,0.00
2017-10-09T03:30:13.706Z,0.00
2017-10-09T03:31:13.727Z,0.00
2017-10-09T03:32:13.754Z,0.00
2017-10-09T03:33:13.885Z,0.00
2017-10-09T03:34:14.125Z,0.00
2017-10-09T03:35:13.853Z,0.00
2017-10-09T03:36:13.893Z,0.00
2017-10-09T03:37:13.916Z,0.00
2017-10-09T03:38:14.009Z,0.00
2017-10-09T03:39:13.985Z,0.00
2017-10-09T03:40:14.310Z,0.00
2017-10-09T03:41:14.077Z,0.00
2017-10-09T03:42:14.074Z,0.00
2017-10-09T03:43:14.201Z,0.00
2017-10-09T03:44:14.202Z,0.00
2017-10-09T03:45:14.162Z,0.00
2017-10-09T03:46:14.507Z,0.00
2017-10-09T03:47:14.233Z,0.00
2017-10-09T03:48:14.297Z,0.00
2017-10-09T03:49:14.352Z,0.00
2017-10-09T03:50:14.339Z,0.00
2017-10-09T03:51:14.377Z,0.00
2017-10-09T03:52:14.707Z,0.00
2017-10-09T03:53:14.415Z,0.00
2017-10-09T03:54:14.514Z,0.00
2017-10-09T03:55:14.482Z,0.00
2017-10-09T03:56:14.517Z,0.00
2017-10-09T03:57:14.546Z,0.00
2017-10-09T03:58:14.807Z,0.00
2017-10-09T03:59:14.961Z,0.00
2017-10-09T04:00:14.665Z,0.00
2017-10-09T04:01:14.670Z,0.00
2017-10-09T04:02:14.700Z,0.00
2017-10-09T04:03:14.734Z,0.00
2017-10-09T04:04:14.834Z,0.00
2017-10-09T04:05:14.795Z,0.00
2017-10-09T04:06:15.138Z,0.00
2017-10-09T04:07:14.888Z,0.00
2017-10-09T04:08:14.903Z,0.00
2017-10-09T04:09:14.941Z,0.00
2017-10-09T04:10:14.962Z,0.00
2017-10-09T04:11:15.004Z,0.00
2017-10-09T04:12:15.321Z,0.00
2017-10-09T04:13:15.054Z,0.00
2017-10-09T04:14:15.087Z,0.00
2017-10-09T04:15:15.199Z,0.00
2017-10-09T04:16:15.188Z,0.00
2017-10-09T04:17:15.180Z,0.00
2017-10-09T04:18:15.587Z,0.00
2017-10-09T04:19:15.253Z,0.00
2017-10-09T04:20:15.372Z,0.00
2017-10-09T04:21:15.306Z,0.00
2017-10-09T04:22:15.394Z,0.00
2017-10-09T04:23:15.409Z,0.00
2017-10-09T04:24:15.755Z,0.00
2017-10-09T04:25:15.501Z,0.00
2017-10-09T04:26:15.635Z,0.00
2017-10-09T04:27:15.552Z,0.00
2017-10-09T04:28:15.526Z,0.00
2017-10-09T04:29:15.651Z,0.00
2017-10-09T04:30:15.678Z,0.00
2017-10-09T04:31:15.950Z,0.00
2017-10-09T04:32:15.657Z,0.00
2017-10-09T04:33:15.741Z,0.00
2017-10-09T04:34:15.763Z,0.00
2017-10-09T04:35:15.798Z,0.00
2017-10-09T04:36:15.834Z,0.00
2017-10-09T04:37:16.222Z,0.00
2017-10-09T04:38:15.849Z,0.00
2017-10-09T04:39:15.889Z,0.00
2017-10-09T04:40:15.923Z,0.00
2017-10-09T04:41:15.978Z,0.00
2017-10-09T04:42:15.980Z,0.00
2017-10-09T04:43:16.407Z,0.00
2017-10-09T04:44:16.042Z,0.00
2017-10-09T04:45:16.071Z,0.00
2017-10-09T04:46:16.178Z,0.00
2017-10-09T04:47:16.388Z,0.00
2017-10-09T04:48:16.268Z,0.00
2017-10-09T04:49:16.606Z,0.00
2017-10-09T04:50:16.269Z,0.00
2017-10-09T04:51:16.307Z,0.00
2017-10-09T04:52:16.301Z,0.00
2017-10-09T04:53:16.321Z,0.00
2017-10-09T04:54:16.355Z,0.00
2017-10-09T04:55:16.544Z,0.00
2017-10-09T04:56:16.780Z,0.00
2017-10-09T04:57:16.510Z,0.00
2017-10-09T04:58:16.541Z,0.00
2017-10-09T04:59:16.527Z,0.00
2017-10-09T05:00:16.604Z,0.00
2017-10-09T05:01:16.582Z,0.00
2017-10-09T05:02:16.912Z,0.00
2017-10-09T05:03:16.659Z,0.00
2017-10-09T05:04:16.697Z,0.00
2017-10-09T05:05:16.761Z,0.00
2017-10-09T05:06:16.803Z,0.00
2017-10-09T05:07:16.771Z,0.00
2017-10-09T05:08:17.107Z,0.00
2017-10-09T05:09:16.908Z,0.00
2017-10-09T05:10:16.867Z,0.00
2017-10-09T05:11:16.916Z,0.00
2017-10-09T05:12:16.932Z,0.00
2017-10-09T05:13:17.055Z,0.00
2017-10-09T05:14:17.290Z,0.00
2017-10-09T05:15:17.036Z,0.00
2017-10-09T05:16:17.112Z,0.00
2017-10-09T05:17:17.088Z,0.00
2017-10-09T05:18:17.117Z,0.00
2017-10-09T05:20:17.484Z,0.00
2017-10-09T05:21:17.253Z,0.00
2017-10-09T05:22:17.254Z,0.00
2017-10-09T05:23:17.288Z,0.00
2017-10-09T05:24:17.325Z,0.00
2017-10-09T05:25:17.347Z,0.00
2017-10-09T05:26:17.708Z,0.00
2017-10-09T05:27:17.730Z,0.00
2017-10-09T05:28:17.442Z,0.00
2017-10-09T05:29:17.479Z,0.00
2017-10-09T05:30:17.502Z,0.00
2017-10-09T05:31:17.553Z,0.00
2017-10-09T05:32:17.726Z,0.00
2017-10-09T05:33:17.897Z,0.00
2017-10-09T05:34:17.631Z,0.00
2017-10-09T05:35:17.665Z,0.00
2017-10-09T05:36:17.792Z,0.00
2017-10-09T05:37:17.724Z,0.00
2017-10-09T05:38:17.762Z,0.00
2017-10-09T05:39:18.097Z,0.00
2017-10-09T05:40:17.873Z,0.00
2017-10-09T05:41:18.025Z,0.00
2017-10-09T05:42:18.136Z,0.00
2017-10-09T05:43:17.919Z,0.00
2017-10-09T05:44:17.961Z,0.00
2017-10-09T05:45:18.289Z,0.00
2017-10-09T05:46:18.091Z,0.00
2017-10-09T05:47:18.098Z,0.00
2017-10-09T05:48:18.183Z,0.00
2017-10-09T05:49:18.667Z,0.00
2017-10-09T05:50:18.140Z,0.00
2017-10-09T05:51:18.181Z,0.00
2017-10-09T05:52:18.503Z,0.00
2017-10-09T05:53:18.255Z,0.00
2017-10-09T05:54:18.308Z,0.00
2017-10-09T05:55:18.297Z,0.00
2017-10-09T05:56:18.334Z,0.00
2017-10-09T05:57:18.414Z,0.00
2017-10-09T05:58:18.714Z,0.00
2017-10-09T05:59:18.519Z,0.00
2017-10-09T06:00:18.501Z,0.00
2017-10-09T06:01:18.510Z,0.00
2017-10-09T06:02:18.539Z,0.00
2017-10-09T06:03:18.606Z,5.63
2017-10-09T06:04:18.988Z,5.63
2017-10-09T06:05:18.674Z,5.63
2017-10-09T06:06:18.661Z,5.63
2017-10-09T06:07:18.692Z,5.63
2017-10-09T06:08:18.780Z,5.63
2017-10-09T06:09:18.814Z,5.63
2017-10-09T06:10:19.204Z,5.63
2017-10-09T06:11:18.865Z,5.63
2017-10-09T06:12:18.894Z,5.63
2017-10-09T06:13:18.922Z,5.63
2017-10-09T06:14:18.910Z,11.25
2017-10-09T06:15:18.941Z,5.63
2017-10-09T06:16:19.274Z,5.63
2017-10-09T06:17:19.035Z,5.63
2017-10-09T06:18:19.049Z,5.63
2017-10-09T06:19:19.120Z,5.63
2017-10-09T06:20:19.310Z,5.63
2017-10-09T06:21:19.293Z,5.63
2017-10-09T06:22:19.171Z,11.25
2017-10-09T06:23:19.551Z,11.25
2017-10-09T06:24:19.281Z,11.25
2017-10-09T06:25:19.291Z,11.25
2017-10-09T06:26:19.346Z,11.25
2017-10-09T06:27:19.321Z,11.25
2017-10-09T06:28:19.387Z,11.25
2017-10-09T06:29:19.731Z,11.25
2017-10-09T06:30:19.417Z,11.25
2017-10-09T06:31:19.565Z,11.25
2017-10-09T06:32:19.479Z,11.25
2017-10-09T06:33:19.562Z,11.25
2017-10-09T06:34:19.547Z,16.88
2017-10-09T06:35:19.579Z,11.25
2017-10-09T06:36:19.920Z,11.25
2017-10-09T06:37:19.699Z,16.88
2017-10-09T06:38:19.708Z,16.88
2017-10-09T06:39:19.778Z,16.88
2017-10-09T06:40:19.739Z,16.88
2017-10-09T06:41:19.768Z,16.88
2017-10-09T06:42:20.151Z,16.88
2017-10-09T06:43:19.830Z,16.88
2017-10-09T06:44:19.863Z,16.88
2017-10-09T06:45:19.907Z,16.88
2017-10-09T06:46:19.935Z,16.88
2017-10-09T06:47:19.990Z,16.88
2017-10-09T06:48:20.299Z,16.88
2017-10-09T06:49:20.077Z,16.88
2017-10-09T06:50:20.057Z,22.50
2017-10-09T06:51:20.102Z,22.50
2017-10-09T06:52:20.121Z,22.50
2017-10-09T06:53:20.172Z,22.50
2017-10-09T06:54:20.485Z,22.50
2017-10-09T06:55:20.264Z,22.50
2017-10-09T06:56:20.259Z,22.50
2017-10-09T06:57:20.490Z,16.88
2017-10-09T06:58:20.327Z,16.88
2017-10-09T06:59:20.349Z,16.88
2017-10-09T07:00:20.693Z,16.88
2017-10-09T07:01:20.423Z,16.88
2017-10-09T07:02:20.448Z,16.88
2017-10-09T07:03:20.588Z,16.88
2017-10-09T07:04:20.516Z,22.50
2017-10-09T07:05:20.537Z,22.50
2017-10-09T07:06:20.583Z,22.50
2017-10-09T07:07:20.931Z,22.50
2017-10-09T07:08:20.710Z,22.50
2017-10-09T07:09:20.666Z,28.13
2017-10-09T07:10:20.699Z,28.13
2017-10-09T07:11:20.783Z,28.13
2017-10-09T07:12:20.785Z,28.13
2017-10-09T07:13:21.177Z,28.13
2017-10-09T07:14:20.888Z,28.13
2017-10-09T07:15:20.867Z,28.13
2017-10-09T07:16:20.891Z,28.13
2017-10-09T07:17:20.927Z,22.50
2017-10-09T07:18:20.956Z,22.50
2017-10-09T07:19:21.290Z,22.50
2017-10-09T07:20:21.020Z,22.50
2017-10-09T07:21:21.061Z,22.50
2017-10-09T07:22:21.103Z,22.50
2017-10-09T07:23:21.114Z,22.50
2017-10-09T07:24:21.149Z,22.50
2017-10-09T07:25:21.481Z,22.50
2017-10-09T07:26:21.221Z,22.50
2017-10-09T07:27:21.295Z,22.50
2017-10-09T07:28:21.280Z,22.50
2017-10-09T07:29:21.483Z,22.50
2017-10-09T07:30:21.495Z,22.50
2017-10-09T07:31:21.408Z,16.88
2017-10-09T07:32:21.713Z,16.88
2017-10-09T07:33:21.470Z,22.50
2017-10-09T07:34:21.492Z,22.50
2017-10-09T07:35:21.506Z,22.50
2017-10-09T07:36:21.765Z,28.13
2017-10-09T07:37:21.615Z,28.13
2017-10-09T07:38:21.926Z,28.13
2017-10-09T07:39:21.746Z,33.75
2017-10-09T07:40:21.765Z,28.13
2017-10-09T07:41:21.722Z,28.13
2017-10-09T07:42:21.763Z,22.50
2017-10-09T07:43:21.758Z,22.50
2017-10-09T07:44:22.093Z,22.50
2017-10-09T07:45:21.824Z,16.88
2017-10-09T07:46:21.860Z,16.88
2017-10-09T07:47:21.894Z,16.88
2017-10-09T07:48:21.922Z,16.88
2017-10-09T07:49:21.960Z,16.88
2017-10-09T07:50:21.991Z,11.25
2017-10-09T07:51:22.122Z,11.25
2017-10-09T07:52:22.103Z,11.25
2017-10-09T07:53:22.085Z,11.25
2017-10-09T07:54:22.114Z,11.25
2017-10-09T07:55:22.445Z,11.25
2017-10-09T07:56:22.181Z,16.88
2017-10-09T07:57:22.270Z,16.88
2017-10-09T07:58:22.302Z,16.88
2017-10-09T07:59:22.302Z,16.88
2017-10-09T08:00:22.312Z,16.88
2017-10-09T08:01:22.393Z,16.88
2017-10-09T08:02:22.670Z,16.88
2017-10-09T08:03:22.406Z,16.88
2017-10-09T08:04:22.439Z,16.88
2017-10-09T08:05:22.472Z,16.88
2017-10-09T08:06:22.501Z,16.88
2017-10-09T08:07:22.532Z,11.25
2017-10-09T08:08:22.864Z,11.25
2017-10-09T08:09:22.614Z,11.25
2017-10-09T08:10:22.638Z,11.25
2017-10-09T08:11:22.660Z,11.25
2017-10-09T08:12:22.693Z,11.25
2017-10-09T08:13:22.731Z,11.25
2017-10-09T08:14:23.058Z,11.25
2017-10-09T08:15:22.840Z,11.25
2017-10-09T08:16:22.831Z,11.25
2017-10-09T08:17:22.917Z,11.25
2017-10-09T08:18:22.885Z,11.25
2017-10-09T08:19:22.919Z,11.25
2017-10-09T08:20:24.004Z,16.88
2017-10-09T08:21:22.987Z,16.88
2017-10-09T08:22:23.018Z,22.50
2017-10-09T08:23:23.148Z,33.75
2017-10-09T08:24:23.082Z,39.38
2017-10-09T08:25:23.862Z,45.00
2017-10-09T08:26:23.652Z,45.00
2017-10-09T08:27:23.173Z,33.75
2017-10-09T08:28:23.202Z,28.13
2017-10-09T08:30:23.272Z,22.50
2017-10-09T08:31:23.301Z,22.50
2017-10-09T08:33:23.666Z,28.13
2017-10-09T08:34:23.398Z,33.75
2017-10-09T08:37:23.649Z,28.13
2017-10-09T08:38:23.529Z,28.13
2017-10-09T08:39:23.870Z,33.75
2017-10-09T08:40:23.594Z,33.75
2017-10-09T08:41:23.638Z,28.13
2017-10-09T08:42:23.653Z,33.75
2017-10-09T08:43:23.798Z,28.13
2017-10-09T08:44:23.718Z,33.75
2017-10-09T08:45:24.057Z,39.38
2017-10-09T08:46:23.786Z,39.38
2017-10-09T08:47:23.856Z,39.38
2017-10-09T08:48:23.960Z,33.75
2017-10-09T08:49:23.895Z,28.13
2017-10-09T08:50:23.914Z,22.50
2017-10-09T08:51:24.336Z,22.50
2017-10-09T08:52:23.977Z,28.13
2017-10-09T08:53:24.090Z,39.38
2017-10-09T08:54:24.095Z,39.38
2017-10-09T08:55:24.074Z,33.75
2017-10-09T08:56:24.103Z,39.38
2017-10-09T08:57:24.140Z,50.63
2017-10-09T08:58:24.523Z,61.88
2017-10-09T08:59:24.310Z,56.25
2017-10-09T09:00:24.234Z,50.63
2017-10-09T09:01:24.280Z,50.63
2017-10-09T09:02:24.343Z,56.25
2017-10-09T09:03:24.374Z,50.63
2017-10-09T09:04:24.673Z,45.00
2017-10-09T09:05:24.393Z,45.00
2017-10-09T09:06:24.432Z,50.63
2017-10-09T09:07:24.503Z,50.63
2017-10-09T09:08:24.490Z,61.88
2017-10-09T09:09:24.535Z,67.50
2017-10-09T09:10:24.858Z,78.75
2017-10-09T09:11:24.592Z,84.38
2017-10-09T09:12:24.619Z,90.00
2017-10-09T09:13:24.655Z,95.63
2017-10-09T09:14:24.682Z,95.63
2017-10-09T09:15:25.066Z,90.00
2017-10-09T09:16:25.051Z,90.00
2017-10-09T09:17:24.780Z,90.00
2017-10-09T09:18:24.818Z,95.63
2017-10-09T09:19:24.845Z,90.00
2017-10-09T09:20:25.149Z,90.00
2017-10-09T09:21:25.061Z,84.38
2017-10-09T09:22:25.261Z,95.63
2017-10-09T09:23:24.987Z,112.50
2017-10-09T09:24:25.023Z,123.75
2017-10-09T09:25:25.061Z,123.75
2017-10-09T09:26:25.342Z,112.50
2017-10-09T09:27:25.118Z,101.25
2017-10-09T09:28:25.449Z,101.25
2017-10-09T09:29:25.181Z,101.25
2017-10-09T09:30:25.213Z,112.50
2017-10-09T09:31:25.247Z,118.13
2017-10-09T09:32:25.280Z,118.13
2017-10-09T09:33:25.340Z,118.13
2017-10-09T09:34:25.891Z,106.88
2017-10-09T09:35:25.378Z,90.00
2017-10-09T09:36:25.405Z,84.38
2017-10-09T09:37:25.623Z,78.75
2017-10-09T09:38:25.480Z,73.13
2017-10-09T09:39:25.517Z,56.25
2017-10-09T09:40:25.833Z,50.63
2017-10-09T09:41:25.587Z,50.63
2017-10-09T09:42:25.600Z,50.63
2017-10-09T09:43:25.630Z,61.88
2017-10-09T09:44:25.666Z,56.25
2017-10-09T09:45:25.695Z,56.25
2017-10-09T09:46:26.026Z,56.25
2017-10-09T09:47:25.810Z,50.63
2017-10-09T09:48:25.827Z,50.63
2017-10-09T09:49:25.841Z,45.00
2017-10-09T09:50:25.856Z,45.00
2017-10-09T09:51:25.892Z,45.00
2017-10-09T09:52:26.229Z,45.00
2017-10-09T09:53:25.964Z,45.00
2017-10-09T09:54:25.988Z,45.00
2017-10-09T09:55:26.018Z,45.00
2017-10-09T09:56:26.054Z,45.00
2017-10-09T09:57:26.240Z,50.63
2017-10-09T09:58:26.413Z,61.88
2017-10-09T09:59:26.181Z,56.25
2017-10-09T10:00:26.193Z,50.63
2017-10-09T10:01:26.213Z,50.63
2017-10-09T10:02:26.269Z,45.00
2017-10-09T10:03:26.281Z,39.38
2017-10-09T10:04:26.628Z,33.75
2017-10-09T10:05:26.347Z,33.75
2017-10-09T10:06:26.375Z,28.13
2017-10-09T10:07:26.418Z,28.13
2017-10-09T10:08:26.488Z,28.13
2017-10-09T10:09:26.498Z,33.75
2017-10-09T10:10:26.805Z,39.38
2017-10-09T10:11:26.537Z,50.63
2017-10-09T10:12:26.570Z,61.88
2017-10-09T10:13:26.703Z,56.25
2017-10-09T10:14:26.633Z,50.63
2017-10-09T10:15:26.674Z,50.63
2017-10-09T10:16:27.006Z,56.25
2017-10-09T10:17:26.795Z,61.88
2017-10-09T10:18:26.769Z,61.88
2017-10-09T10:19:26.857Z,61.88
2017-10-09T10:20:26.830Z,67.50
2017-10-09T10:21:26.883Z,67.50
2017-10-09T10:22:27.197Z,67.50
2017-10-09T10:23:26.938Z,67.50
2017-10-09T10:24:27.665Z,73.13
2017-10-09T10:25:26.992Z,78.75
2017-10-09T10:26:27.025Z,90.00
2017-10-09T10:27:27.054Z,95.63
2017-10-09T10:28:27.093Z,106.88
2017-10-09T10:29:27.137Z,112.50
2017-10-09T10:30:27.153Z,123.75
2017-10-09T10:31:27.192Z,123.75
2017-10-09T10:32:27.221Z,118.13
2017-10-09T10:33:27.250Z,118.13
2017-10-09T10:34:27.385Z,112.50
2017-10-09T10:35:27.622Z,106.88
2017-10-09T10:36:27.383Z,112.50
2017-10-09T10:37:27.385Z,112.50
2017-10-09T10:38:27.419Z,101.25
2017-10-09T10:39:27.501Z,95.63
2017-10-09T10:40:27.479Z,106.88
2017-10-09T10:41:27.820Z,101.25
2017-10-09T10:42:27.597Z,95.63
2017-10-09T10:43:27.578Z,101.25
2017-10-09T10:44:27.609Z,106.88
2017-10-09T10:45:27.845Z,101.25
2017-10-09T10:46:27.675Z,95.63
2017-10-09T10:47:28.113Z,90.00
2017-10-09T10:48:27.752Z,90.00
2017-10-09T10:49:27.809Z,95.63
2017-10-09T10:50:27.809Z,95.63
2017-10-09T10:51:27.848Z,95.63
2017-10-09T10:52:27.890Z,90.00
2017-10-09T10:53:28.222Z,90.00
2017-10-09T10:54:27.937Z,78.75
2017-10-09T10:55:27.967Z,90.00
2017-10-09T10:56:28.011Z,101.25
2017-10-09T10:57:28.095Z,106.88
2017-10-09T10:58:28.067Z,123.75
2017-10-09T10:59:28.401Z,129.38
2017-10-09T11:00:28.134Z,123.75
2017-10-09T11:01:28.167Z,106.88
2017-10-09T11:02:28.257Z,101.25
2017-10-09T11:03:28.231Z,106.88
2017-10-09T11:04:28.274Z,112.50
2017-10-09T11:05:28.603Z,123.75
2017-10-09T11:06:28.340Z,135.00
2017-10-09T11:07:28.362Z,140.63
2017-10-09T11:08:28.399Z,129.38
2017-10-09T11:09:28.477Z,118.13
2017-10-09T11:10:28.465Z,123.75
2017-10-09T11:11:28.793Z,123.75
2017-10-09T11:12:28.540Z,129.38
2017-10-09T11:13:28.589Z,129.38
2017-10-09T11:14:28.674Z,135.00
2017-10-09T11:15:28.623Z,129.38
2017-10-09T11:16:28.659Z,123.75
2017-10-09T11:17:29.100Z,112.50
2017-10-09T11:18:29.049Z,112.50
2017-10-09T11:19:28.759Z,118.13
2017-10-09T11:20:28.860Z,112.50
2017-10-09T11:21:28.872Z,112.50
2017-10-09T11:22:28.861Z,112.50
2017-10-09T11:23:28.899Z,118.13
2017-10-09T11:24:29.302Z,118.13
2017-10-09T11:25:28.964Z,118.13
2017-10-09T11:26:28.999Z,118.13
2017-10-09T11:27:29.020Z,129.38
2017-10-09T11:28:29.058Z,123.75
2017-10-09T11:29:29.090Z,112.50
2017-10-09T11:30:29.144Z,112.50
2017-10-09T11:31:29.453Z,112.50
2017-10-09T11:32:29.189Z,106.88
2017-10-09T11:33:29.217Z,101.25
2017-10-09T11:34:29.253Z,101.25
2017-10-09T11:35:29.312Z,101.25
2017-10-09T11:36:29.347Z,106.88
2017-10-09T11:37:29.659Z,101.25
2017-10-09T11:38:29.451Z,95.63
2017-10-09T11:39:29.442Z,84.38
2017-10-09T11:40:29.571Z,73.13
2017-10-09T11:41:29.481Z,67.50
2017-10-09T11:42:29.515Z,56.25
2017-10-09T11:43:29.848Z,50.63
2017-10-09T11:44:29.587Z,45.00
2017-10-09T11:45:29.619Z,45.00
2017-10-09T11:46:29.750Z,45.00
2017-10-09T11:47:29.681Z,45.00
2017-10-09T11:48:29.781Z,39.38
2017-10-09T11:49:29.758Z,39.38
2017-10-09T11:50:29.784Z,33.75
2017-10-09T11:51:29.813Z,33.75
2017-10-09T11:52:29.853Z,28.13
2017-10-09T11:53:29.879Z,28.13
2017-10-09T11:54:29.914Z,33.75
2017-10-09T11:55:30.243Z,33.75
2017-10-09T11:56:29.978Z,33.75
2017-10-09T11:57:30.012Z,33.75
2017-10-09T11:58:30.041Z,39.38
2017-10-09T11:59:30.083Z,45.00
2017-10-09T12:00:30.364Z,45.00
2017-10-09T12:01:30.156Z,45.00
2017-10-09T12:02:30.482Z,45.00
2017-10-09T12:03:30.260Z,45.00
2017-10-09T12:04:30.241Z,45.00
2017-10-09T12:05:30.278Z,39.38
2017-10-09T12:06:30.309Z,39.38
2017-10-09T12:07:30.348Z,39.38
2017-10-09T12:08:30.670Z,39.38
2017-10-09T12:09:30.409Z,45.00
2017-10-09T12:10:30.686Z,50.63
2017-10-09T12:11:30.468Z,56.25
2017-10-09T12:12:30.503Z,61.88
2017-10-09T12:13:30.535Z,73.13
2017-10-09T12:14:30.867Z,73.13
2017-10-09T12:15:30.605Z,78.75
2017-10-09T12:16:30.641Z,90.00
2017-10-09T12:17:30.668Z,90.00
2017-10-09T12:18:30.698Z,84.38
2017-10-09T12:19:30.781Z,84.38
2017-10-09T12:20:30.766Z,78.75
2017-10-09T12:21:31.100Z,73.13
2017-10-09T12:22:30.830Z,67.50
2017-10-09T12:23:30.879Z,61.88
2017-10-09T12:24:30.896Z,56.25
2017-10-09T12:25:30.930Z,56.25
2017-10-09T12:26:30.967Z,56.25
2017-10-09T12:27:31.298Z,56.25
2017-10-09T12:28:31.033Z,56.25
2017-10-09T12:29:31.069Z,56.25
2017-10-09T12:30:31.105Z,56.25
2017-10-09T12:31:31.124Z,56.25
2017-10-09T12:32:31.156Z,61.88
2017-10-09T12:33:31.488Z,56.25
2017-10-09T12:34:31.231Z,56.25
2017-10-09T12:35:31.260Z,50.63
2017-10-09T12:36:31.290Z,50.63
2017-10-09T12:37:31.335Z,56.25
2017-10-09T12:38:31.358Z,61.88
2017-10-09T12:39:31.392Z,61.88
2017-10-09T12:40:31.871Z,61.88
2017-10-09T12:42:31.534Z,50.63
2017-10-09T12:43:31.522Z,45.00
2017-10-09T12:44:31.561Z,39.38
2017-10-09T12:45:31.582Z,45.00
2017-10-09T12:46:31.931Z,45.00
2017-10-09T12:47:31.647Z,45.00
2017-10-09T12:48:31.692Z,39.38
2017-10-09T12:49:31.730Z,33.75
2017-10-09T12:50:31.755Z,33.75
2017-10-09T12:51:31.782Z,39.38
2017-10-09T12:52:32.127Z,39.38
2017-10-09T12:53:32.094Z,39.38
2017-10-09T12:54:31.888Z,39.38
2017-10-09T12:55:31.912Z,45.00
2017-10-09T12:56:31.953Z,56.25
2017-10-09T12:57:31.975Z,73.13
2017-10-09T12:58:32.319Z,84.38
2017-10-09T12:59:32.265Z,84.38
2017-10-09T13:00:32.074Z,84.38
2017-10-09T13:01:32.109Z,78.75
2017-10-09T13:02:32.141Z,67.50
2017-10-09T13:03:32.235Z,61.88
2017-10-09T13:04:32.508Z,56.25
2017-10-09T13:05:32.289Z,56.25
2017-10-09T13:06:32.276Z,56.25
2017-10-09T13:07:32.354Z,45.00
2017-10-09T13:08:32.335Z,39.38